sensor_id;sensor_type;location;lat;lon;timestamp;pressure;altitude;pressure_sealevel;temperature;humidity
78313;BME280;67568;47.438;21.408;2023-06-14T00:02:24;100336.44;;;13.62;85.04
78313;BME280;67568;47.438;21.408;2023-06-14T00:04:54;100340.19;;;13.49;86.07
78313;BME280;67568;47.438;21.408;2023-06-14T00:07:37;100334.13;;;13.56;84.51
78313;BME280;67568;47.438;21.408;2023-06-14T00:10:04;100328.28;;;13.26;87.13
78313;BME280;67568;47.438;21.408;2023-06-14T00:12:34;100328.28;;;13.26;86.34
78313;BME280;67568;47.438;21.408;2023-06-14T00:15:02;100333.75;;;13.40;85.72
78313;BME280;67568;47.438;21.408;2023-06-14T00:17:29;100327.06;;;13.49;84.75
78313;BME280;67568;47.438;21.408;2023-06-14T00:19:59;100325.59;;;13.43;85.92
78313;BME280;67568;47.438;21.408;2023-06-14T00:22:26;100327.34;;;13.39;85.48
78313;BME280;67568;47.438;21.408;2023-06-14T00:24:52;100337.50;;;13.35;85.68
78313;BME280;67568;47.438;21.408;2023-06-14T00:27:22;100330.28;;;13.34;85.98
78313;BME280;67568;47.438;21.408;2023-06-14T00:29:48;100334.56;;;13.40;86.05
78313;BME280;67568;47.438;21.408;2023-06-14T00:32:15;100337.00;;;13.33;86.41
78313;BME280;67568;47.438;21.408;2023-06-14T00:34:44;100330.00;;;13.44;86.61
78313;BME280;67568;47.438;21.408;2023-06-14T00:37:11;100330.28;;;13.34;86.52
78313;BME280;67568;47.438;21.408;2023-06-14T00:39:38;100331.63;;;13.45;86.10
78313;BME280;67568;47.438;21.408;2023-06-14T00:42:06;100330.03;;;13.53;85.64
78313;BME280;67568;47.438;21.408;2023-06-14T00:44:33;100329.06;;;13.58;85.73
78313;BME280;67568;47.438;21.408;2023-06-14T00:47:02;100328.19;;;13.48;86.19
78313;BME280;67568;47.438;21.408;2023-06-14T00:49:30;100328.53;;;13.47;85.66
78313;BME280;67568;47.438;21.408;2023-06-14T00:51:57;100317.38;;;13.38;85.91
78313;BME280;67568;47.438;21.408;2023-06-14T00:54:24;100324.72;;;13.34;86.44
78313;BME280;67568;47.438;21.408;2023-06-14T00:56:51;100329.16;;;13.35;85.83
78313;BME280;67568;47.438;21.408;2023-06-14T00:59:18;100329.16;;;13.35;85.70
78313;BME280;67568;47.438;21.408;2023-06-14T01:01:44;100335.06;;;13.42;85.92
78313;BME280;67568;47.438;21.408;2023-06-14T01:04:11;100332.28;;;13.42;85.60
78313;BME280;67568;47.438;21.408;2023-06-14T01:12:11;100338.31;;;13.36;85.61
78313;BME280;67568;47.438;21.408;2023-06-14T01:14:42;100335.06;;;13.42;85.94
78313;BME280;67568;47.438;21.408;2023-06-14T01:17:09;100330.47;;;13.38;86.76
78313;BME280;67568;47.438;21.408;2023-06-14T01:19:37;100336.50;;;13.31;85.63
78313;BME280;67568;47.438;21.408;2023-06-14T01:22:04;100336.63;;;13.26;87.13
78313;BME280;67568;47.438;21.408;2023-06-14T01:24:31;100329.28;;;13.30;86.33
78313;BME280;67568;47.438;21.408;2023-06-14T01:27:02;100329.81;;;13.32;85.25
78313;BME280;67568;47.438;21.408;2023-06-14T01:29:29;100333.84;;;13.26;85.32
78313;BME280;67568;47.438;21.408;2023-06-14T01:31:56;100340.44;;;13.30;86.17
78313;BME280;67568;47.438;21.408;2023-06-14T01:34:23;100339.72;;;13.24;86.27
78313;BME280;67568;47.438;21.408;2023-06-14T01:36:50;100346.91;;;12.94;88.00
78313;BME280;67568;47.438;21.408;2023-06-14T01:39:22;100347.81;;;13.03;87.77
78313;BME280;67568;47.438;21.408;2023-06-14T01:41:50;100350.28;;;13.14;86.31
78313;BME280;67568;47.438;21.408;2023-06-14T01:44:18;100351.63;;;13.16;85.83
78313;BME280;67568;47.438;21.408;2023-06-14T01:46:46;100353.06;;;13.14;86.27
78313;BME280;67568;47.438;21.408;2023-06-14T01:49:14;100352.91;;;13.10;86.59
78313;BME280;67568;47.438;21.408;2023-06-14T01:51:42;100351.69;;;13.02;86.83
78313;BME280;67568;47.438;21.408;2023-06-14T01:54:10;100350.06;;;13.01;85.31
78313;BME280;67568;47.438;21.408;2023-06-14T01:56:43;100349.59;;;12.77;86.97
78313;BME280;67568;47.438;21.408;2023-06-14T01:59:10;100345.47;;;12.74;86.41
78313;BME280;67568;47.438;21.408;2023-06-14T02:01:36;100357.06;;;12.68;86.60
78313;BME280;67568;47.438;21.408;2023-06-14T02:04:03;100358.03;;;12.72;86.96
78313;BME280;67568;47.438;21.408;2023-06-14T02:06:30;100349.47;;;12.59;88.32
78313;BME280;67568;47.438;21.408;2023-06-14T02:08:57;100362.47;;;12.50;87.77
78313;BME280;67568;47.438;21.408;2023-06-14T02:11:24;100363.19;;;12.56;87.10
78313;BME280;67568;47.438;21.408;2023-06-14T02:13:51;100354.38;;;12.40;88.34
78313;BME280;67568;47.438;21.408;2023-06-14T02:16:18;100361.34;;;12.51;86.92
78313;BME280;67568;47.438;21.408;2023-06-14T02:18:48;100360.81;;;12.49;88.00
78313;BME280;67568;47.438;21.408;2023-06-14T02:21:14;100368.28;;;12.40;87.84
78313;BME280;67568;47.438;21.408;2023-06-14T02:23:41;100367.06;;;12.32;88.90
78313;BME280;67568;47.438;21.408;2023-06-14T02:26:08;100362.22;;;12.38;87.82
78313;BME280;67568;47.438;21.408;2023-06-14T02:28:35;100367.91;;;12.33;88.72
78313;BME280;67568;47.438;21.408;2023-06-14T02:31:02;100366.63;;;12.39;87.69
78313;BME280;67568;47.438;21.408;2023-06-14T02:33:30;100368.16;;;12.45;87.90
78313;BME280;67568;47.438;21.408;2023-06-14T02:35:57;100365.56;;;12.49;87.18
78313;BME280;67568;47.438;21.408;2023-06-14T02:38:24;100363.69;;;12.58;86.97
78313;BME280;67568;47.438;21.408;2023-06-14T02:40:51;100367.78;;;12.60;86.07
78313;BME280;67568;47.438;21.408;2023-06-14T02:43:18;100371.94;;;12.49;87.54
78313;BME280;67568;47.438;21.408;2023-06-14T02:45:45;100375.63;;;12.58;87.35
78313;BME280;67568;47.438;21.408;2023-06-14T02:48:11;100385.59;;;12.59;86.51
78313;BME280;67568;47.438;21.408;2023-06-14T02:50:40;100373.47;;;12.55;86.26
78313;BME280;67568;47.438;21.408;2023-06-14T02:53:07;100378.72;;;12.57;86.28
78313;BME280;67568;47.438;21.408;2023-06-14T02:55:39;100379.03;;;12.55;86.47
78313;BME280;67568;47.438;21.408;2023-06-14T02:58:06;100376.75;;;12.57;85.49
78313;BME280;67568;47.438;21.408;2023-06-14T03:00:36;100371.53;;;12.56;85.66
78313;BME280;67568;47.438;21.408;2023-06-14T03:03:03;100373.00;;;12.40;87.21
78313;BME280;67568;47.438;21.408;2023-06-14T03:05:30;100368.00;;;12.28;86.83
78313;BME280;67568;47.438;21.408;2023-06-14T03:07:56;100372.22;;;12.25;87.14
78313;BME280;67568;47.438;21.408;2023-06-14T03:10:24;100370.41;;;12.43;86.88
78313;BME280;67568;47.438;21.408;2023-06-14T03:12:51;100373.41;;;12.47;86.97
78313;BME280;67568;47.438;21.408;2023-06-14T03:15:18;100373.41;;;12.47;85.86
78313;BME280;67568;47.438;21.408;2023-06-14T03:17:46;100378.88;;;12.60;86.74
78313;BME280;67568;47.438;21.408;2023-06-14T03:20:13;100378.28;;;12.64;86.06
78313;BME280;67568;47.438;21.408;2023-06-14T03:22:41;100378.13;;;12.69;85.54
78313;BME280;67568;47.438;21.408;2023-06-14T03:25:08;100370.50;;;12.74;85.22
78313;BME280;67568;47.438;21.408;2023-06-14T03:27:35;100372.97;;;12.76;84.90
78313;BME280;67568;47.438;21.408;2023-06-14T03:30:02;100380.16;;;12.77;85.98
78313;BME280;67568;47.438;21.408;2023-06-14T03:32:30;100373.28;;;12.74;85.85
78313;BME280;67568;47.438;21.408;2023-06-14T03:34:57;100370.19;;;12.76;85.24
78313;BME280;67568;47.438;21.408;2023-06-14T03:37:24;100379.75;;;12.83;84.89
78313;BME280;67568;47.438;21.408;2023-06-14T03:39:51;100368.41;;;12.80;85.61
78313;BME280;67568;47.438;21.408;2023-06-14T03:42:18;100381.66;;;12.60;87.55
78313;BME280;67568;47.438;21.408;2023-06-14T03:44:48;100379.59;;;12.66;88.19
78313;BME280;67568;47.438;21.408;2023-06-14T03:47:15;100377.88;;;12.34;89.63
78313;BME280;67568;47.438;21.408;2023-06-14T03:49:44;100369.25;;;12.22;90.84
78313;BME280;67568;47.438;21.408;2023-06-14T03:52:12;100373.03;;;12.26;91.39
78313;BME280;67568;47.438;21.408;2023-06-14T03:54:39;100379.63;;;12.30;90.85
78313;BME280;67568;47.438;21.408;2023-06-14T03:57:11;100382.78;;;12.37;91.16
78313;BME280;67568;47.438;21.408;2023-06-14T03:59:38;100377.25;;;12.59;89.06
78313;BME280;67568;47.438;21.408;2023-06-14T04:02:05;100379.53;;;12.57;89.09
78313;BME280;67568;47.438;21.408;2023-06-14T04:04:32;100378.53;;;12.53;90.06
78313;BME280;67568;47.438;21.408;2023-06-14T04:06:59;100379.28;;;12.45;89.46
78313;BME280;67568;47.438;21.408;2023-06-14T04:09:27;100372.72;;;12.64;89.86
78313;BME280;67568;47.438;21.408;2023-06-14T04:11:54;100372.28;;;12.70;88.60
78313;BME280;67568;47.438;21.408;2023-06-14T04:14:22;100382.06;;;12.90;88.21
78313;BME280;67568;47.438;21.408;2023-06-14T04:16:49;100386.06;;;12.98;87.59
78313;BME280;67568;47.438;21.408;2023-06-14T04:19:18;100382.81;;;13.04;88.00
78313;BME280;67568;47.438;21.408;2023-06-14T04:21:45;100390.88;;;13.15;88.24
78313;BME280;67568;47.438;21.408;2023-06-14T04:24:12;100389.94;;;13.19;87.02
78313;BME280;67568;47.438;21.408;2023-06-14T04:26:42;100384.44;;;13.05;88.22
78313;BME280;67568;47.438;21.408;2023-06-14T04:29:12;100386.53;;;13.00;88.10
78313;BME280;67568;47.438;21.408;2023-06-14T04:31:47;100383.63;;;13.05;87.96
78313;BME280;67568;47.438;21.408;2023-06-14T04:34:16;100383.53;;;13.19;88.14
78313;BME280;67568;47.438;21.408;2023-06-14T04:36:43;100391.50;;;13.34;87.25
78313;BME280;67568;47.438;21.408;2023-06-14T04:39:11;100383.03;;;13.39;86.35
78313;BME280;67568;47.438;21.408;2023-06-14T04:41:41;100394.53;;;13.46;86.64
78313;BME280;67568;47.438;21.408;2023-06-14T04:44:08;100391.31;;;13.31;88.63
78313;BME280;67568;47.438;21.408;2023-06-14T04:46:36;100389.88;;;13.33;88.17
78313;BME280;67568;47.438;21.408;2023-06-14T04:49:03;100395.66;;;13.45;86.91
78313;BME280;67568;47.438;21.408;2023-06-14T04:51:30;100389.28;;;13.45;87.85
78313;BME280;67568;47.438;21.408;2023-06-14T04:53:56;100399.84;;;13.65;87.48
78313;BME280;67568;47.438;21.408;2023-06-14T04:56:26;100407.56;;;13.77;87.86
78313;BME280;67568;47.438;21.408;2023-06-14T04:58:52;100402.09;;;14.03;87.96
78313;BME280;67568;47.438;21.408;2023-06-14T05:01:22;100406.72;;;14.25;86.74
78313;BME280;67568;47.438;21.408;2023-06-14T05:03:52;100402.16;;;14.47;85.61
78313;BME280;67568;47.438;21.408;2023-06-14T05:06:19;100404.47;;;14.53;86.41
78313;BME280;67568;47.438;21.408;2023-06-14T05:08:45;100413.69;;;14.80;85.28
78313;BME280;67568;47.438;21.408;2023-06-14T05:11:12;100409.72;;;14.98;84.66
78313;BME280;67568;47.438;21.408;2023-06-14T05:13:42;100403.78;;;15.17;83.81
78313;BME280;67568;47.438;21.408;2023-06-14T05:16:09;100407.19;;;15.32;83.58
78313;BME280;67568;47.438;21.408;2023-06-14T05:18:36;100414.22;;;15.38;83.41
78313;BME280;67568;47.438;21.408;2023-06-14T05:21:03;100423.31;;;15.73;81.73
78313;BME280;67568;47.438;21.408;2023-06-14T05:23:31;100419.34;;;15.83;82.18
78313;BME280;67568;47.438;21.408;2023-06-14T05:25:57;100418.50;;;15.91;81.98
78313;BME280;67568;47.438;21.408;2023-06-14T05:28:28;100420.16;;;16.13;81.21
78313;BME280;67568;47.438;21.408;2023-06-14T05:31:00;100432.16;;;16.13;81.00
78313;BME280;67568;47.438;21.408;2023-06-14T05:33:28;100431.16;;;16.39;80.58
78313;BME280;67568;47.438;21.408;2023-06-14T05:35:58;100433.19;;;16.59;80.11
78313;BME280;67568;47.438;21.408;2023-06-14T05:38:31;100427.69;;;16.42;81.13
78313;BME280;67568;47.438;21.408;2023-06-14T05:40:59;100424.97;;;16.33;81.69
78313;BME280;67568;47.438;21.408;2023-06-14T05:43:27;100422.06;;;16.51;81.14
78313;BME280;67568;47.438;21.408;2023-06-14T05:45:57;100426.78;;;16.80;79.73
78313;BME280;67568;47.438;21.408;2023-06-14T05:48:23;100428.69;;;16.88;79.20
78313;BME280;67568;47.438;21.408;2023-06-14T05:50:59;100434.53;;;16.95;79.01
78313;BME280;67568;47.438;21.408;2023-06-14T05:53:38;100421.78;;;17.19;77.93
78313;BME280;67568;47.438;21.408;2023-06-14T05:56:06;100430.94;;;17.28;77.11
78313;BME280;67568;47.438;21.408;2023-06-14T05:58:32;100426.88;;;17.04;77.48
78313;BME280;67568;47.438;21.408;2023-06-14T06:01:02;100435.91;;;17.56;76.63
78313;BME280;67568;47.438;21.408;2023-06-14T06:03:38;100421.34;;;17.74;75.60
78313;BME280;67568;47.438;21.408;2023-06-14T06:06:05;100428.13;;;17.73;75.61
78313;BME280;67568;47.438;21.408;2023-06-14T06:08:37;100433.03;;;17.76;74.54
78313;BME280;67568;47.438;21.408;2023-06-14T06:11:13;100442.88;;;17.95;74.31
78313;BME280;67568;47.438;21.408;2023-06-14T06:13:40;100446.41;;;17.59;73.52
78313;BME280;67568;47.438;21.408;2023-06-14T06:16:15;100443.34;;;17.85;73.25
78313;BME280;67568;47.438;21.408;2023-06-14T06:18:45;100447.59;;;17.70;74.60
78313;BME280;67568;47.438;21.408;2023-06-14T06:21:12;100450.13;;;17.96;73.47
78313;BME280;67568;47.438;21.408;2023-06-14T06:23:41;100456.78;;;18.28;73.51
78313;BME280;67568;47.438;21.408;2023-06-14T06:26:14;100456.50;;;18.70;71.11
78313;BME280;67568;47.438;21.408;2023-06-14T06:28:43;100452.50;;;18.71;70.61
78313;BME280;67568;47.438;21.408;2023-06-14T06:31:10;100448.34;;;18.40;70.78
78313;BME280;67568;47.438;21.408;2023-06-14T06:33:39;100457.19;;;18.55;72.13
78313;BME280;67568;47.438;21.408;2023-06-14T06:36:06;100463.66;;;18.18;71.67
78313;BME280;67568;47.438;21.408;2023-06-14T06:38:36;100459.00;;;17.98;73.07
78313;BME280;67568;47.438;21.408;2023-06-14T06:41:08;100453.97;;;17.91;72.98
78313;BME280;67568;47.438;21.408;2023-06-14T06:43:34;100457.25;;;17.93;71.84
78313;BME280;67568;47.438;21.408;2023-06-14T06:46:06;100454.19;;;17.98;72.16
78313;BME280;67568;47.438;21.408;2023-06-14T06:48:33;100456.66;;;18.00;71.90
78313;BME280;67568;47.438;21.408;2023-06-14T06:51:07;100456.56;;;17.96;72.22
78313;BME280;67568;47.438;21.408;2023-06-14T06:53:53;100456.59;;;17.75;72.23
78313;BME280;67568;47.438;21.408;2023-06-14T06:56:27;100453.03;;;18.12;71.28
78313;BME280;67568;47.438;21.408;2023-06-14T06:58:57;100447.75;;;18.47;70.67
78313;BME280;67568;47.438;21.408;2023-06-14T07:01:27;100452.16;;;18.60;69.48
78313;BME280;67568;47.438;21.408;2023-06-14T07:03:56;100456.94;;;18.84;69.08
78313;BME280;67568;47.438;21.408;2023-06-14T07:06:25;100449.34;;;18.73;69.02
78313;BME280;67568;47.438;21.408;2023-06-14T07:08:52;100451.19;;;18.81;69.17
78313;BME280;67568;47.438;21.408;2023-06-14T07:11:18;100458.47;;;18.82;68.45
78313;BME280;67568;47.438;21.408;2023-06-14T07:13:56;100465.38;;;19.13;68.09
78313;BME280;67568;47.438;21.408;2023-06-14T07:16:24;100469.91;;;19.17;67.90
78313;BME280;67568;47.438;21.408;2023-06-14T07:18:56;100467.66;;;18.95;67.44
78313;BME280;67568;47.438;21.408;2023-06-14T07:21:27;100467.56;;;18.91;67.52
78313;BME280;67568;47.438;21.408;2023-06-14T07:24:05;100468.28;;;19.16;66.84
78313;BME280;67568;47.438;21.408;2023-06-14T07:26:32;100472.22;;;19.27;67.31
78313;BME280;67568;47.438;21.408;2023-06-14T07:28:59;100472.06;;;19.08;67.84
78313;BME280;67568;47.438;21.408;2023-06-14T07:31:28;100471.34;;;19.11;67.64
78313;BME280;67568;47.438;21.408;2023-06-14T07:34:01;100473.22;;;19.35;67.11
78313;BME280;67568;47.438;21.408;2023-06-14T07:36:29;100476.06;;;19.07;67.68
78313;BME280;67568;47.438;21.408;2023-06-14T07:38:56;100472.25;;;19.15;67.25
78313;BME280;67568;47.438;21.408;2023-06-14T07:41:25;100474.28;;;19.59;66.26
78313;BME280;67568;47.438;21.408;2023-06-14T07:43:57;100485.41;;;19.55;65.41
78313;BME280;67568;47.438;21.408;2023-06-14T07:46:33;100474.16;;;19.83;65.32
78313;BME280;67568;47.438;21.408;2023-06-14T07:49:00;100481.31;;;19.81;65.00
78313;BME280;67568;47.438;21.408;2023-06-14T07:51:26;100481.78;;;19.83;63.01
78313;BME280;67568;47.438;21.408;2023-06-14T07:54:02;100473.97;;;20.08;62.18
78313;BME280;67568;47.438;21.408;2023-06-14T07:56:32;100474.97;;;20.15;62.41
78313;BME280;67568;47.438;21.408;2023-06-14T07:58:59;100472.41;;;20.42;62.05
78313;BME280;67568;47.438;21.408;2023-06-14T08:01:29;100473.81;;;20.67;61.78
78313;BME280;67568;47.438;21.408;2023-06-14T08:03:57;100471.59;;;20.77;61.84
78313;BME280;67568;47.438;21.408;2023-06-14T08:06:24;100471.84;;;21.07;60.64
78313;BME280;67568;47.438;21.408;2023-06-14T08:08:54;100479.50;;;20.36;61.57
78313;BME280;67568;47.438;21.408;2023-06-14T08:11:24;100474.31;;;20.38;62.27
78313;BME280;67568;47.438;21.408;2023-06-14T08:13:51;100469.97;;;20.76;61.15
78313;BME280;67568;47.438;21.408;2023-06-14T08:16:20;100480.56;;;20.47;60.82
78313;BME280;67568;47.438;21.408;2023-06-14T08:18:50;100482.50;;;20.11;62.45
78313;BME280;67568;47.438;21.408;2023-06-14T08:21:17;100486.59;;;19.98;62.62
78313;BME280;67568;47.438;21.408;2023-06-14T08:23:48;100479.94;;;20.38;62.09
78313;BME280;67568;47.438;21.408;2023-06-14T08:26:21;100484.19;;;20.63;61.47
78313;BME280;67568;47.438;21.408;2023-06-14T08:28:49;100487.44;;;20.65;60.71
78313;BME280;67568;47.438;21.408;2023-06-14T08:31:22;100478.63;;;20.51;60.47
78313;BME280;67568;47.438;21.408;2023-06-14T08:33:49;100481.56;;;20.23;61.56
78313;BME280;67568;47.438;21.408;2023-06-14T08:36:18;100496.56;;;20.11;62.54
78313;BME280;67568;47.438;21.408;2023-06-14T08:38:48;100486.22;;;20.15;61.34
78313;BME280;67568;47.438;21.408;2023-06-14T08:41:22;100490.50;;;19.93;61.20
78313;BME280;67568;47.438;21.408;2023-06-14T08:44:12;100489.19;;;19.75;61.70
78313;BME280;67568;47.438;21.408;2023-06-14T08:46:40;100494.03;;;19.90;61.47
78313;BME280;67568;47.438;21.408;2023-06-14T08:49:12;100494.72;;;19.71;61.70
78313;BME280;67568;47.438;21.408;2023-06-14T08:51:38;100489.88;;;19.56;61.92
78313;BME280;67568;47.438;21.408;2023-06-14T08:54:06;100486.34;;;19.59;62.75
78313;BME280;67568;47.438;21.408;2023-06-14T08:56:33;100487.25;;;19.63;62.96
78313;BME280;67568;47.438;21.408;2023-06-14T08:59:00;100489.13;;;20.03;61.25
78313;BME280;67568;47.438;21.408;2023-06-14T09:01:34;100494.38;;;20.20;60.98
78313;BME280;67568;47.438;21.408;2023-06-14T09:06:51;100490.13;;;20.27;60.18
78313;BME280;67568;47.438;21.408;2023-06-14T09:09:22;100486.59;;;20.14;60.09
78313;BME280;67568;47.438;21.408;2023-06-14T09:11:52;100490.84;;;19.92;60.07
78313;BME280;67568;47.438;21.408;2023-06-14T09:14:19;100503.19;;;20.03;59.79
78313;BME280;67568;47.438;21.408;2023-06-14T09:16:51;100488.28;;;20.34;57.90
78313;BME280;67568;47.438;21.408;2023-06-14T09:19:23;100487.38;;;20.62;57.06
78313;BME280;67568;47.438;21.408;2023-06-14T09:21:50;100486.28;;;20.66;56.87
78313;BME280;67568;47.438;21.408;2023-06-14T09:24:17;100480.97;;;20.30;58.42
78313;BME280;67568;47.438;21.408;2023-06-14T09:26:59;100490.38;;;20.53;57.85
78313;BME280;67568;47.438;21.408;2023-06-14T09:29:28;100485.56;;;20.89;57.50
78313;BME280;67568;47.438;21.408;2023-06-14T09:32:02;100487.94;;;21.06;56.83
78313;BME280;67568;47.438;21.408;2023-06-14T09:34:33;100482.16;;;20.99;56.21
78313;BME280;67568;47.438;21.408;2023-06-14T09:37:05;100494.19;;;21.16;55.76
78313;BME280;67568;47.438;21.408;2023-06-14T09:39:35;100490.31;;;21.04;56.67
78313;BME280;67568;47.438;21.408;2023-06-14T09:42:16;100500.22;;;20.79;57.50
78313;BME280;67568;47.438;21.408;2023-06-14T09:44:49;100496.69;;;20.66;58.14
78313;BME280;67568;47.438;21.408;2023-06-14T09:47:19;100498.81;;;20.37;59.71
78313;BME280;67568;47.438;21.408;2023-06-14T09:49:55;100505.38;;;20.26;59.89
78313;BME280;67568;47.438;21.408;2023-06-14T09:52:30;100502.47;;;20.38;58.64
78313;BME280;67568;47.438;21.408;2023-06-14T09:54:59;100505.56;;;20.84;58.01
78313;BME280;67568;47.438;21.408;2023-06-14T09:57:26;100502.78;;;21.03;57.04
78313;BME280;67568;47.438;21.408;2023-06-14T10:00:01;100502.94;;;21.30;56.85
78313;BME280;67568;47.438;21.408;2023-06-14T10:02:38;100501.28;;;21.48;55.62
78313;BME280;67568;47.438;21.408;2023-06-14T10:05:09;100497.13;;;21.62;54.76
78313;BME280;67568;47.438;21.408;2023-06-14T10:08:13;100489.69;;;21.73;53.30
78313;BME280;67568;47.438;21.408;2023-06-14T10:10:43;100491.91;;;21.83;53.61
78313;BME280;67568;47.438;21.408;2023-06-14T10:13:10;100484.56;;;22.01;53.31
78313;BME280;67568;47.438;21.408;2023-06-14T10:15:51;100489.63;;;22.15;53.11
78313;BME280;67568;47.438;21.408;2023-06-14T10:21:06;100479.28;;;21.34;54.59
78313;BME280;67568;47.438;21.408;2023-06-14T10:23:40;100484.59;;;21.20;55.90
78313;BME280;67568;47.438;21.408;2023-06-14T10:26:08;100488.53;;;21.35;55.89
78313;BME280;67568;47.438;21.408;2023-06-14T10:28:37;100486.88;;;21.34;55.77
78313;BME280;67568;47.438;21.408;2023-06-14T10:31:09;100490.97;;;21.17;55.79
78313;BME280;67568;47.438;21.408;2023-06-14T10:33:48;100482.31;;;21.45;54.37
78313;BME280;67568;47.438;21.408;2023-06-14T10:41:54;100477.25;;;21.35;50.34
78313;BME280;67568;47.438;21.408;2023-06-14T10:46:53;100471.72;;;21.81;50.75
78313;BME280;67568;47.438;21.408;2023-06-14T10:52:29;100473.25;;;22.01;49.45
78313;BME280;67568;47.438;21.408;2023-06-14T10:55:17;100471.97;;;21.95;49.34
78313;BME280;67568;47.438;21.408;2023-06-14T10:57:47;100470.41;;;21.75;49.91
78313;BME280;67568;47.438;21.408;2023-06-14T11:00:22;100463.09;;;21.51;50.73
78313;BME280;67568;47.438;21.408;2023-06-14T11:06:00;100469.53;;;21.51;50.89
78313;BME280;67568;47.438;21.408;2023-06-14T11:11:14;100467.56;;;21.13;51.35
78313;BME280;67568;47.438;21.408;2023-06-14T11:13:54;100466.88;;;21.00;51.66
78313;BME280;67568;47.438;21.408;2023-06-14T11:16:26;100459.47;;;20.92;52.34
78313;BME280;67568;47.438;21.408;2023-06-14T11:19:12;100466.22;;;21.26;51.51
78313;BME280;67568;47.438;21.408;2023-06-14T11:21:42;100464.34;;;21.53;51.06
78313;BME280;67568;47.438;21.408;2023-06-14T11:24:20;100458.09;;;21.64;50.27
78313;BME280;67568;47.438;21.408;2023-06-14T11:29:20;100460.94;;;21.05;51.83
78313;BME280;67568;47.438;21.408;2023-06-14T11:31:50;100457.59;;;21.00;52.06
78313;BME280;67568;47.438;21.408;2023-06-14T11:34:17;100450.34;;;20.99;51.98
78313;BME280;67568;47.438;21.408;2023-06-14T11:37:11;100450.06;;;21.04;51.58
78313;BME280;67568;47.438;21.408;2023-06-14T11:39:43;100456.13;;;21.45;50.83
78313;BME280;67568;47.438;21.408;2023-06-14T11:42:16;100442.94;;;21.72;50.27
78313;BME280;67568;47.438;21.408;2023-06-14T11:44:55;100433.88;;;21.63;50.25
78313;BME280;67568;47.438;21.408;2023-06-14T11:47:39;100441.69;;;21.92;50.36
78313;BME280;67568;47.438;21.408;2023-06-14T11:50:08;100432.16;;;22.00;49.58
78313;BME280;67568;47.438;21.408;2023-06-14T11:52:41;100441.47;;;21.82;49.57
78313;BME280;67568;47.438;21.408;2023-06-14T11:55:09;100431.31;;;21.54;49.94
78313;BME280;67568;47.438;21.408;2023-06-14T11:57:40;100429.13;;;21.24;50.36
78313;BME280;67568;47.438;21.408;2023-06-14T12:00:07;100428.88;;;21.52;50.31
78313;BME280;67568;47.438;21.408;2023-06-14T12:02:38;100427.63;;;21.73;49.81
78313;BME280;67568;47.438;21.408;2023-06-14T12:05:08;100428.38;;;21.70;50.42
78313;BME280;67568;47.438;21.408;2023-06-14T12:07:37;100433.56;;;21.91;49.26
78313;BME280;67568;47.438;21.408;2023-06-14T12:10:07;100424.09;;;22.02;48.89
78313;BME280;67568;47.438;21.408;2023-06-14T12:12:38;100430.50;;;21.99;49.89
78313;BME280;67568;47.438;21.408;2023-06-14T12:15:40;100414.03;;;21.55;49.95
78313;BME280;67568;47.438;21.408;2023-06-14T12:18:10;100414.53;;;21.38;50.54
78313;BME280;67568;47.438;21.408;2023-06-14T12:20:41;100418.53;;;21.18;51.19
78313;BME280;67568;47.438;21.408;2023-06-14T12:23:08;100420.00;;;21.11;51.13
78313;BME280;67568;47.438;21.408;2023-06-14T12:25:39;100426.09;;;20.94;52.61
78313;BME280;67568;47.438;21.408;2023-06-14T12:28:24;100424.59;;;21.00;51.28
78313;BME280;67568;47.438;21.408;2023-06-14T12:30:58;100416.03;;;21.13;51.90
78313;BME280;67568;47.438;21.408;2023-06-14T12:33:35;100412.44;;;21.35;49.99
78313;BME280;67568;47.438;21.408;2023-06-14T12:36:05;100415.25;;;21.54;50.33
78313;BME280;67568;47.438;21.408;2023-06-14T12:38:36;100412.97;;;21.64;49.58
78313;BME280;67568;47.438;21.408;2023-06-14T12:41:05;100407.84;;;21.46;50.41
78313;BME280;67568;47.438;21.408;2023-06-14T12:43:32;100410.97;;;21.41;50.20
78313;BME280;67568;47.438;21.408;2023-06-14T12:46:04;100418.81;;;21.32;50.85
78313;BME280;67568;47.438;21.408;2023-06-14T12:48:31;100414.97;;;21.21;50.81
78313;BME280;67568;47.438;21.408;2023-06-14T12:51:02;100412.53;;;21.19;50.63
78313;BME280;67568;47.438;21.408;2023-06-14T12:53:35;100408.75;;;21.11;51.27
78313;BME280;67568;47.438;21.408;2023-06-14T12:56:04;100401.03;;;21.08;50.96
78313;BME280;67568;47.438;21.408;2023-06-14T12:58:31;100401.75;;;21.25;51.17
78313;BME280;67568;47.438;21.408;2023-06-14T13:01:01;100401.00;;;21.28;51.33
78313;BME280;67568;47.438;21.408;2023-06-14T13:03:29;100396.06;;;21.21;51.31
78313;BME280;67568;47.438;21.408;2023-06-14T13:06:30;100394.00;;;20.99;52.27
78313;BME280;67568;47.438;21.408;2023-06-14T13:08:57;100394.34;;;21.17;50.68
78313;BME280;67568;47.438;21.408;2023-06-14T13:11:31;100393.28;;;21.44;49.53
78313;BME280;67568;47.438;21.408;2023-06-14T13:13:58;100390.69;;;21.36;49.71
78313;BME280;67568;47.438;21.408;2023-06-14T13:16:48;100398.03;;;21.40;49.57
78313;BME280;67568;47.438;21.408;2023-06-14T13:19:15;100390.63;;;21.32;50.68
78313;BME280;67568;47.438;21.408;2023-06-14T13:21:45;100389.91;;;21.16;51.64
78313;BME280;67568;47.438;21.408;2023-06-14T13:24:12;100397.63;;;21.19;50.66
78313;BME280;67568;47.438;21.408;2023-06-14T13:26:39;100390.78;;;21.20;51.09